sensor_id;sensor_type;location;lat;lon;timestamp;temperature;humidity
16392;DHT22;8305;-33.882;151.134;2023-07-31T00:00:59;18.40;99.90
16392;DHT22;8305;-33.882;151.134;2023-07-31T00:03:30;18.50;99.90
16392;DHT22;8305;-33.882;151.134;2023-07-31T00:06:00;18.60;99.90
16392;DHT22;8305;-33.882;151.134;2023-07-31T00:08:33;18.60;99.90
16392;DHT22;8305;-33.882;151.134;2023-07-31T00:11:04;18.60;99.90
16392;DHT22;8305;-33.882;151.134;2023-07-31T00:13:35;18.70;99.90
16392;DHT22;8305;-33.882;151.134;2023-07-31T00:16:05;18.80;99.90
16392;DHT22;8305;-33.882;151.134;2023-07-31T00:18:36;18.80;99.90
16392;DHT22;8305;-33.882;151.134;2023-07-31T00:21:07;18.90;99.90
16392;DHT22;8305;-33.882;151.134;2023-07-31T00:23:39;18.90;99.90
16392;DHT22;8305;-33.882;151.134;2023-07-31T00:26:10;18.90;99.90
16392;DHT22;8305;-33.882;151.134;2023-07-31T00:28:41;18.90;99.90
16392;DHT22;8305;-33.882;151.134;2023-07-31T00:31:12;19.10;99.90
16392;DHT22;8305;-33.882;151.134;2023-07-31T00:33:43;19.10;99.90
16392;DHT22;8305;-33.882;151.134;2023-07-31T00:36:13;19.20;99.90
16392;DHT22;8305;-33.882;151.134;2023-07-31T00:38:47;19.30;99.90
16392;DHT22;8305;-33.882;151.134;2023-07-31T00:41:18;19.40;99.90
16392;DHT22;8305;-33.882;151.134;2023-07-31T00:43:49;19.40;99.90
16392;DHT22;8305;-33.882;151.134;2023-07-31T00:46:20;19.40;99.90
16392;DHT22;8305;-33.882;151.134;2023-07-31T00:48:51;19.40;99.90
16392;DHT22;8305;-33.882;151.134;2023-07-31T00:51:22;19.50;99.90
16392;DHT22;8305;-33.882;151.134;2023-07-31T00:53:55;19.70;99.90
16392;DHT22;8305;-33.882;151.134;2023-07-31T00:56:26;19.80;99.90
16392;DHT22;8305;-33.882;151.134;2023-07-31T00:58:58;19.70;99.90
16392;DHT22;8305;-33.882;151.134;2023-07-31T01:01:29;19.80;99.90
16392;DHT22;8305;-33.882;151.134;2023-07-31T01:04:00;19.80;99.90
16392;DHT22;8305;-33.882;151.134;2023-07-31T01:06:36;19.80;99.90
16392;DHT22;8305;-33.882;151.134;2023-07-31T01:09:16;19.90;99.90
16392;DHT22;8305;-33.882;151.134;2023-07-31T01:11:53;19.80;99.90
16392;DHT22;8305;-33.882;151.134;2023-07-31T01:14:27;19.80;99.90
16392;DHT22;8305;-33.882;151.134;2023-07-31T01:16:58;19.90;99.90
16392;DHT22;8305;-33.882;151.134;2023-07-31T01:19:29;20.00;99.90
16392;DHT22;8305;-33.882;151.134;2023-07-31T01:22:26;20.10;99.90
16392;DHT22;8305;-33.882;151.134;2023-07-31T01:25:14;20.20;99.90
16392;DHT22;8305;-33.882;151.134;2023-07-31T01:27:53;20.40;99.90
16392;DHT22;8305;-33.882;151.134;2023-07-31T01:30:31;20.50;99.90
16392;DHT22;8305;-33.882;151.134;2023-07-31T01:33:03;20.50;99.90
16392;DHT22;8305;-33.882;151.134;2023-07-31T01:35:35;20.60;99.90
16392;DHT22;8305;-33.882;151.134;2023-07-31T01:38:07;20.70;99.90
16392;DHT22;8305;-33.882;151.134;2023-07-31T01:40:40;20.60;99.90
16392;DHT22;8305;-33.882;151.134;2023-07-31T01:43:14;20.50;99.90
16392;DHT22;8305;-33.882;151.134;2023-07-31T01:45:45;20.50;99.90
16392;DHT22;8305;-33.882;151.134;2023-07-31T01:48:15;20.60;99.90
16392;DHT22;8305;-33.882;151.134;2023-07-31T01:50:46;20.80;99.90
16392;DHT22;8305;-33.882;151.134;2023-07-31T01:53:17;20.90;99.90
16392;DHT22;8305;-33.882;151.134;2023-07-31T01:55:48;21.00;99.90
16392;DHT22;8305;-33.882;151.134;2023-07-31T01:58:20;21.10;99.90
16392;DHT22;8305;-33.882;151.134;2023-07-31T02:00:54;21.10;99.90
16392;DHT22;8305;-33.882;151.134;2023-07-31T02:03:25;21.20;99.90
16392;DHT22;8305;-33.882;151.134;2023-07-31T02:05:56;21.10;99.90
16392;DHT22;8305;-33.882;151.134;2023-07-31T02:08:26;21.20;99.90
16392;DHT22;8305;-33.882;151.134;2023-07-31T02:10:57;21.30;99.90
16392;DHT22;8305;-33.882;151.134;2023-07-31T02:13:30;21.30;99.90
16392;DHT22;8305;-33.882;151.134;2023-07-31T02:16:01;21.30;99.90
16392;DHT22;8305;-33.882;151.134;2023-07-31T02:18:31;21.30;99.90
16392;DHT22;8305;-33.882;151.134;2023-07-31T02:21:02;21.40;99.90
16392;DHT22;8305;-33.882;151.134;2023-07-31T02:23:33;21.50;99.90
16392;DHT22;8305;-33.882;151.134;2023-07-31T02:26:04;21.40;99.90
16392;DHT22;8305;-33.882;151.134;2023-07-31T02:28:36;21.30;99.90
16392;DHT22;8305;-33.882;151.134;2023-07-31T02:31:10;21.40;99.90
16392;DHT22;8305;-33.882;151.134;2023-07-31T02:33:41;21.60;99.90
16392;DHT22;8305;-33.882;151.134;2023-07-31T02:36:12;21.60;99.90
16392;DHT22;8305;-33.882;151.134;2023-07-31T02:38:43;21.60;99.90
16392;DHT22;8305;-33.882;151.134;2023-07-31T02:41:12;21.70;99.90
16392;DHT22;8305;-33.882;151.134;2023-07-31T02:43:45;21.80;99.90
16392;DHT22;8305;-33.882;151.134;2023-07-31T02:46:15;21.80;99.90
16392;DHT22;8305;-33.882;151.134;2023-07-31T02:48:46;21.90;99.90
16392;DHT22;8305;-33.882;151.134;2023-07-31T02:51:17;21.80;99.90
16392;DHT22;8305;-33.882;151.134;2023-07-31T02:53:49;21.90;99.90
16392;DHT22;8305;-33.882;151.134;2023-07-31T02:56:19;22.00;99.90
16392;DHT22;8305;-33.882;151.134;2023-07-31T02:58:52;21.90;99.90
16392;DHT22;8305;-33.882;151.134;2023-07-31T03:01:23;21.80;99.90
16392;DHT22;8305;-33.882;151.134;2023-07-31T03:03:54;21.90;99.90
16392;DHT22;8305;-33.882;151.134;2023-07-31T03:06:24;22.10;99.90
16392;DHT22;8305;-33.882;151.134;2023-07-31T03:08:55;22.10;99.90
16392;DHT22;8305;-33.882;151.134;2023-07-31T03:11:26;22.20;99.90
16392;DHT22;8305;-33.882;151.134;2023-07-31T03:13:59;22.20;99.90
16392;DHT22;8305;-33.882;151.134;2023-07-31T03:16:29;22.40;99.90
16392;DHT22;8305;-33.882;151.134;2023-07-31T03:19:00;22.40;99.90
16392;DHT22;8305;-33.882;151.134;2023-07-31T03:21:31;22.40;99.90
16392;DHT22;8305;-33.882;151.134;2023-07-31T03:24:02;22.40;99.90
16392;DHT22;8305;-33.882;151.134;2023-07-31T03:26:33;22.30;99.90
16392;DHT22;8305;-33.882;151.134;2023-07-31T03:29:06;22.40;99.90
16392;DHT22;8305;-33.882;151.134;2023-07-31T03:31:37;22.50;99.90
16392;DHT22;8305;-33.882;151.134;2023-07-31T03:34:07;22.50;99.90
16392;DHT22;8305;-33.882;151.134;2023-07-31T03:36:38;22.50;99.90
16392;DHT22;8305;-33.882;151.134;2023-07-31T03:39:09;22.50;99.90
16392;DHT22;8305;-33.882;151.134;2023-07-31T03:41:40;22.50;99.90
16392;DHT22;8305;-33.882;151.134;2023-07-31T03:44:12;22.40;99.90
16392;DHT22;8305;-33.882;151.134;2023-07-31T03:46:43;22.30;99.90
16392;DHT22;8305;-33.882;151.134;2023-07-31T03:49:14;22.30;99.90
16392;DHT22;8305;-33.882;151.134;2023-07-31T03:51:45;22.40;99.90
16392;DHT22;8305;-33.882;151.134;2023-07-31T03:54:15;22.50;99.90
16392;DHT22;8305;-33.882;151.134;2023-07-31T03:56:46;22.50;99.90
16392;DHT22;8305;-33.882;151.134;2023-07-31T03:59:19;22.60;99.90
16392;DHT22;8305;-33.882;151.134;2023-07-31T04:01:50;22.60;99.90
16392;DHT22;8305;-33.882;151.134;2023-07-31T04:04:20;22.60;99.90
16392;DHT22;8305;-33.882;151.134;2023-07-31T04:06:51;22.60;99.90
16392;DHT22;8305;-33.882;151.134;2023-07-31T04:09:22;22.60;99.90
16392;DHT22;8305;-33.882;151.134;2023-07-31T04:11:53;22.50;99.90
16392;DHT22;8305;-33.882;151.134;2023-07-31T04:14:25;22.60;99.90
16392;DHT22;8305;-33.882;151.134;2023-07-31T04:16:56;22.60;99.90
16392;DHT22;8305;-33.882;151.134;2023-07-31T04:19:27;22.60;99.90
16392;DHT22;8305;-33.882;151.134;2023-07-31T04:21:58;22.50;99.90
16392;DHT22;8305;-33.882;151.134;2023-07-31T04:24:29;22.50;99.90
16392;DHT22;8305;-33.882;151.134;2023-07-31T04:26:59;22.60;99.90
16392;DHT22;8305;-33.882;151.134;2023-07-31T04:29:32;22.50;99.90
16392;DHT22;8305;-33.882;151.134;2023-07-31T04:32:03;22.50;99.90
16392;DHT22;8305;-33.882;151.134;2023-07-31T04:34:34;22.60;99.90
16392;DHT22;8305;-33.882;151.134;2023-07-31T04:37:05;22.70;99.90
16392;DHT22;8305;-33.882;151.134;2023-07-31T04:39:35;22.70;99.90
16392;DHT22;8305;-33.882;151.134;2023-07-31T04:42:06;22.70;99.90
16392;DHT22;8305;-33.882;151.134;2023-07-31T04:44:39;22.70;99.90
16392;DHT22;8305;-33.882;151.134;2023-07-31T04:47:10;22.80;99.90
16392;DHT22;8305;-33.882;151.134;2023-07-31T04:49:41;22.70;99.90
16392;DHT22;8305;-33.882;151.134;2023-07-31T04:52:11;22.70;99.90
16392;DHT22;8305;-33.882;151.134;2023-07-31T04:54:42;22.80;99.90
16392;DHT22;8305;-33.882;151.134;2023-07-31T04:57:13;22.70;99.90
16392;DHT22;8305;-33.882;151.134;2023-07-31T04:59:46;22.60;99.90
16392;DHT22;8305;-33.882;151.134;2023-07-31T05:02:16;22.50;99.90
16392;DHT22;8305;-33.882;151.134;2023-07-31T05:04:47;22.50;99.90
16392;DHT22;8305;-33.882;151.134;2023-07-31T05:07:18;22.60;99.90
16392;DHT22;8305;-33.882;151.134;2023-07-31T05:09:49;22.50;99.90
16392;DHT22;8305;-33.882;151.134;2023-07-31T05:12:20;22.60;99.90
16392;DHT22;8305;-33.882;151.134;2023-07-31T05:14:52;22.50;99.90
16392;DHT22;8305;-33.882;151.134;2023-07-31T05:17:23;22.50;99.90
16392;DHT22;8305;-33.882;151.134;2023-07-31T05:19:54;22.50;99.90
16392;DHT22;8305;-33.882;151.134;2023-07-31T05:22:25;22.50;99.90
16392;DHT22;8305;-33.882;151.134;2023-07-31T05:24:55;22.50;99.90
16392;DHT22;8305;-33.882;151.134;2023-07-31T05:27:26;22.40;99.90
16392;DHT22;8305;-33.882;151.134;2023-07-31T05:29:59;22.40;99.90
16392;DHT22;8305;-33.882;151.134;2023-07-31T05:32:30;22.40;99.90
16392;DHT22;8305;-33.882;151.134;2023-07-31T05:35:01;22.40;99.90
16392;DHT22;8305;-33.882;151.134;2023-07-31T05:37:32;22.40;99.90
16392;DHT22;8305;-33.882;151.134;2023-07-31T05:40:03;22.40;99.90
16392;DHT22;8305;-33.882;151.134;2023-07-31T05:42:34;22.50;99.90
16392;DHT22;8305;-33.882;151.134;2023-07-31T05:45:09;22.50;99.90
16392;DHT22;8305;-33.882;151.134;2023-07-31T05:47:41;22.50;99.90
16392;DHT22;8305;-33.882;151.134;2023-07-31T05:50:12;22.40;99.90
16392;DHT22;8305;-33.882;151.134;2023-07-31T05:52:43;22.40;99.90
16392;DHT22;8305;-33.882;151.134;2023-07-31T05:55:13;22.40;99.90
16392;DHT22;8305;-33.882;151.134;2023-07-31T05:57:44;22.40;99.90
16392;DHT22;8305;-33.882;151.134;2023-07-31T06:00:18;22.40;99.90
16392;DHT22;8305;-33.882;151.134;2023-07-31T06:02:48;22.40;99.90
16392;DHT22;8305;-33.882;151.134;2023-07-31T06:05:19;22.30;99.90
16392;DHT22;8305;-33.882;151.134;2023-07-31T06:07:54;22.20;99.90
16392;DHT22;8305;-33.882;151.134;2023-07-31T06:10:24;22.20;99.90
16392;DHT22;8305;-33.882;151.134;2023-07-31T06:12:56;22.20;99.90
16392;DHT22;8305;-33.882;151.134;2023-07-31T06:15:29;22.10;99.90
16392;DHT22;8305;-33.882;151.134;2023-07-31T06:17:59;22.10;99.90
16392;DHT22;8305;-33.882;151.134;2023-07-31T06:20:31;22.00;99.90
16392;DHT22;8305;-33.882;151.134;2023-07-31T06:23:01;21.90;99.90
16392;DHT22;8305;-33.882;151.134;2023-07-31T06:25:32;21.90;99.90
16392;DHT22;8305;-33.882;151.134;2023-07-31T06:28:03;21.80;99.90
16392;DHT22;8305;-33.882;151.134;2023-07-31T06:30:36;21.80;99.90
16392;DHT22;8305;-33.882;151.134;2023-07-31T06:33:06;21.70;99.90
16392;DHT22;8305;-33.882;151.134;2023-07-31T06:35:37;21.60;99.90
16392;DHT22;8305;-33.882;151.134;2023-07-31T06:38:08;21.60;99.90
16392;DHT22;8305;-33.882;151.134;2023-07-31T06:40:39;21.50;99.90
16392;DHT22;8305;-33.882;151.134;2023-07-31T06:43:09;21.40;99.90
16392;DHT22;8305;-33.882;151.134;2023-07-31T06:45:42;21.40;99.90
16392;DHT22;8305;-33.882;151.134;2023-07-31T06:48:13;21.30;99.90
16392;DHT22;8305;-33.882;151.134;2023-07-31T06:50:45;21.10;99.90
16392;DHT22;8305;-33.882;151.134;2023-07-31T06:53:16;21.00;99.90
16392;DHT22;8305;-33.882;151.134;2023-07-31T06:55:46;20.80;99.90
16392;DHT22;8305;-33.882;151.134;2023-07-31T06:58:19;20.70;99.90
16392;DHT22;8305;-33.882;151.134;2023-07-31T07:00:52;20.60;99.90
16392;DHT22;8305;-33.882;151.134;2023-07-31T07:03:23;20.50;99.90
16392;DHT22;8305;-33.882;151.134;2023-07-31T07:05:53;20.40;99.90
16392;DHT22;8305;-33.882;151.134;2023-07-31T07:08:25;20.30;99.90
16392;DHT22;8305;-33.882;151.134;2023-07-31T07:10:56;20.20;99.90
16392;DHT22;8305;-33.882;151.134;2023-07-31T07:13:26;20.10;99.90
16392;DHT22;8305;-33.882;151.134;2023-07-31T07:15:59;20.00;99.90
16392;DHT22;8305;-33.882;151.134;2023-07-31T07:18:30;19.80;99.90
16392;DHT22;8305;-33.882;151.134;2023-07-31T07:21:01;19.70;99.90
16392;DHT22;8305;-33.882;151.134;2023-07-31T07:23:31;19.60;99.90
16392;DHT22;8305;-33.882;151.134;2023-07-31T07:26:02;19.40;99.90
16392;DHT22;8305;-33.882;151.134;2023-07-31T07:28:33;19.30;99.90
16392;DHT22;8305;-33.882;151.134;2023-07-31T07:31:06;19.10;99.90
16392;DHT22;8305;-33.882;151.134;2023-07-31T07:33:37;19.00;99.90
16392;DHT22;8305;-33.882;151.134;2023-07-31T07:36:08;18.90;99.90
16392;DHT22;8305;-33.882;151.134;2023-07-31T07:38:40;18.80;99.90
16392;DHT22;8305;-33.882;151.134;2023-07-31T07:41:11;18.70;99.90
16392;DHT22;8305;-33.882;151.134;2023-07-31T07:43:42;18.60;99.90
16392;DHT22;8305;-33.882;151.134;2023-07-31T07:46:14;18.50;99.90
16392;DHT22;8305;-33.882;151.134;2023-07-31T07:48:45;18.40;99.90
16392;DHT22;8305;-33.882;151.134;2023-07-31T07:51:16;18.30;99.90
16392;DHT22;8305;-33.882;151.134;2023-07-31T07:53:47;18.10;99.90
16392;DHT22;8305;-33.882;151.134;2023-07-31T07:56:17;18.10;99.90
16392;DHT22;8305;-33.882;151.134;2023-07-31T07:58:50;18.00;99.90
16392;DHT22;8305;-33.882;151.134;2023-07-31T08:01:22;17.90;99.90
16392;DHT22;8305;-33.882;151.134;2023-07-31T08:03:53;17.80;99.90
16392;DHT22;8305;-33.882;151.134;2023-07-31T08:06:24;17.80;99.90
16392;DHT22;8305;-33.882;151.134;2023-07-31T08:08:55;17.70;99.90
16392;DHT22;8305;-33.882;151.134;2023-07-31T08:11:26;17.70;99.90
16392;DHT22;8305;-33.882;151.134;2023-07-31T08:13:57;17.60;99.90
16392;DHT22;8305;-33.882;151.134;2023-07-31T08:16:29;17.50;99.90
16392;DHT22;8305;-33.882;151.134;2023-07-31T08:19:00;17.50;99.90
16392;DHT22;8305;-33.882;151.134;2023-07-31T08:21:31;17.50;99.90
16392;DHT22;8305;-33.882;151.134;2023-07-31T08:24:02;17.40;99.90
16392;DHT22;8305;-33.882;151.134;2023-07-31T08:26:33;17.40;99.90
16392;DHT22;8305;-33.882;151.134;2023-07-31T08:29:04;17.40;99.90
16392;DHT22;8305;-33.882;151.134;2023-07-31T08:31:36;17.40;99.90
16392;DHT22;8305;-33.882;151.134;2023-07-31T08:34:07;17.30;99.90
16392;DHT22;8305;-33.882;151.134;2023-07-31T08:36:38;17.30;99.90
16392;DHT22;8305;-33.882;151.134;2023-07-31T08:39:09;17.20;99.90
16392;DHT22;8305;-33.882;151.134;2023-07-31T08:41:40;17.10;99.90
16392;DHT22;8305;-33.882;151.134;2023-07-31T08:44:11;17.10;99.90
16392;DHT22;8305;-33.882;151.134;2023-07-31T08:46:45;17.00;99.90
16392;DHT22;8305;-33.882;151.134;2023-07-31T08:49:18;17.00;99.90
16392;DHT22;8305;-33.882;151.134;2023-07-31T08:51:51;16.90;99.90
16392;DHT22;8305;-33.882;151.134;2023-07-31T08:54:23;16.90;99.90
16392;DHT22;8305;-33.882;151.134;2023-07-31T08:56:57;16.80;99.90
16392;DHT22;8305;-33.882;151.134;2023-07-31T08:59:30;16.70;99.90
16392;DHT22;8305;-33.882;151.134;2023-07-31T09:02:07;16.60;99.90
16392;DHT22;8305;-33.882;151.134;2023-07-31T09:04:38;16.50;99.90
16392;DHT22;8305;-33.882;151.134;2023-07-31T09:07:09;16.50;99.90
16392;DHT22;8305;-33.882;151.134;2023-07-31T09:09:41;16.50;99.90
16392;DHT22;8305;-33.882;151.134;2023-07-31T09:12:11;16.40;99.90
16392;DHT22;8305;-33.882;151.134;2023-07-31T09:14:43;16.40;99.90
16392;DHT22;8305;-33.882;151.134;2023-07-31T09:17:28;16.30;99.90
16392;DHT22;8305;-33.882;151.134;2023-07-31T09:20:14;16.30;99.90
16392;DHT22;8305;-33.882;151.134;2023-07-31T09:22:45;16.20;99.90
16392;DHT22;8305;-33.882;151.134;2023-07-31T09:25:17;16.20;99.90
16392;DHT22;8305;-33.882;151.134;2023-07-31T09:27:50;16.20;99.90
16392;DHT22;8305;-33.882;151.134;2023-07-31T09:30:21;16.20;99.90
16392;DHT22;8305;-33.882;151.134;2023-07-31T09:33:05;16.10;99.90
16392;DHT22;8305;-33.882;151.134;2023-07-31T09:35:36;16.10;99.90
16392;DHT22;8305;-33.882;151.134;2023-07-31T09:38:10;16.10;99.90
16392;DHT22;8305;-33.882;151.134;2023-07-31T09:40:42;16.10;99.90
16392;DHT22;8305;-33.882;151.134;2023-07-31T09:43:16;16.10;99.90
16392;DHT22;8305;-33.882;151.134;2023-07-31T09:45:48;16.00;99.90
16392;DHT22;8305;-33.882;151.134;2023-07-31T09:48:20;16.00;99.90
16392;DHT22;8305;-33.882;151.134;2023-07-31T09:50:54;16.00;99.90
16392;DHT22;8305;-33.882;151.134;2023-07-31T09:53:29;15.90;99.90
16392;DHT22;8305;-33.882;151.134;2023-07-31T09:56:00;15.90;99.90
16392;DHT22;8305;-33.882;151.134;2023-07-31T09:58:33;15.90;99.90
16392;DHT22;8305;-33.882;151.134;2023-07-31T10:01:05;15.90;99.90
16392;DHT22;8305;-33.882;151.134;2023-07-31T10:03:38;15.90;99.90
16392;DHT22;8305;-33.882;151.134;2023-07-31T10:06:13;15.90;99.90
16392;DHT22;8305;-33.882;151.134;2023-07-31T10:08:48;16.00;99.90
16392;DHT22;8305;-33.882;151.134;2023-07-31T10:11:21;16.00;99.90
16392;DHT22;8305;-33.882;151.134;2023-07-31T10:13:53;16.00;99.90
16392;DHT22;8305;-33.882;151.134;2023-07-31T10:16:24;16.10;99.90
16392;DHT22;8305;-33.882;151.134;2023-07-31T10:18:57;16.20;99.90
16392;DHT22;8305;-33.882;151.134;2023-07-31T10:21:29;16.30;99.90
16392;DHT22;8305;-33.882;151.134;2023-07-31T10:24:04;16.50;99.90
16392;DHT22;8305;-33.882;151.134;2023-07-31T10:26:36;16.70;99.90
16392;DHT22;8305;-33.882;151.134;2023-07-31T10:29:08;16.90;99.90
16392;DHT22;8305;-33.882;151.134;2023-07-31T10:31:39;17.00;99.90
16392;DHT22;8305;-33.882;151.134;2023-07-31T10:34:12;17.00;99.90
16392;DHT22;8305;-33.882;151.134;2023-07-31T10:36:44;17.00;99.90
16392;DHT22;8305;-33.882;151.134;2023-07-31T10:39:34;16.90;99.90
16392;DHT22;8305;-33.882;151.134;2023-07-31T10:42:13;16.90;99.90
16392;DHT22;8305;-33.882;151.134;2023-07-31T10:44:48;16.90;99.90
16392;DHT22;8305;-33.882;151.134;2023-07-31T10:47:20;16.80;99.90
16392;DHT22;8305;-33.882;151.134;2023-07-31T10:49:52;16.70;99.90
16392;DHT22;8305;-33.882;151.134;2023-07-31T10:52:23;16.60;99.90
16392;DHT22;8305;-33.882;151.134;2023-07-31T10:58:07;16.50;99.90
16392;DHT22;8305;-33.882;151.134;2023-07-31T11:00:39;16.50;99.90
16392;DHT22;8305;-33.882;151.134;2023-07-31T11:03:10;16.50;99.90
16392;DHT22;8305;-33.882;151.134;2023-07-31T11:05:56;16.40;99.90
16392;DHT22;8305;-33.882;151.134;2023-07-31T11:08:31;16.30;99.90
16392;DHT22;8305;-33.882;151.134;2023-07-31T11:11:09;16.30;99.90
16392;DHT22;8305;-33.882;151.134;2023-07-31T11:13:45;16.30;99.90
16392;DHT22;8305;-33.882;151.134;2023-07-31T11:16:17;16.20;99.90
16392;DHT22;8305;-33.882;151.134;2023-07-31T11:18:49;16.20;99.90
16392;DHT22;8305;-33.882;151.134;2023-07-31T11:21:24;16.10;99.90
16392;DHT22;8305;-33.882;151.134;2023-07-31T11:23:57;16.10;99.90
16392;DHT22;8305;-33.882;151.134;2023-07-31T11:26:28;16.10;99.90
16392;DHT22;8305;-33.882;151.134;2023-07-31T11:28:59;16.10;99.90
16392;DHT22;8305;-33.882;151.134;2023-07-31T11:31:30;16.10;99.90
16392;DHT22;8305;-33.882;151.134;2023-07-31T11:34:07;16.00;99.90
16392;DHT22;8305;-33.882;151.134;2023-07-31T11:36:39;15.90;99.90
16392;DHT22;8305;-33.882;151.134;2023-07-31T11:39:11;15.70;99.90
16392;DHT22;8305;-33.882;151.134;2023-07-31T11:41:42;15.60;99.90
16392;DHT22;8305;-33.882;151.134;2023-07-31T11:44:13;15.40;99.90
16392;DHT22;8305;-33.882;151.134;2023-07-31T11:46:44;15.30;99.90
16392;DHT22;8305;-33.882;151.134;2023-07-31T11:49:16;15.20;99.90
16392;DHT22;8305;-33.882;151.134;2023-07-31T11:51:49;15.10;99.90
16392;DHT22;8305;-33.882;151.134;2023-07-31T11:54:19;15.10;99.90
16392;DHT22;8305;-33.882;151.134;2023-07-31T11:56:50;15.00;99.90
16392;DHT22;8305;-33.882;151.134;2023-07-31T11:59:22;14.90;99.90
16392;DHT22;8305;-33.882;151.134;2023-07-31T12:01:53;14.90;99.90
16392;DHT22;8305;-33.882;151.134;2023-07-31T12:04:24;14.90;99.90
16392;DHT22;8305;-33.882;151.134;2023-07-31T12:06:59;14.80;99.90
16392;DHT22;8305;-33.882;151.134;2023-07-31T12:09:30;14.80;99.90
16392;DHT22;8305;-33.882;151.134;2023-07-31T12:12:01;14.80;99.90
16392;DHT22;8305;-33.882;151.134;2023-07-31T12:14:32;14.70;99.90
16392;DHT22;8305;-33.882;151.134;2023-07-31T12:17:05;14.80;99.90
16392;DHT22;8305;-33.882;151.134;2023-07-31T12:19:36;14.80;99.90
16392;DHT22;8305;-33.882;151.134;2023-07-31T12:22:14;14.80;99.90
16392;DHT22;8305;-33.882;151.134;2023-07-31T12:24:45;14.80;99.90
16392;DHT22;8305;-33.882;151.134;2023-07-31T12:27:16;14.80;99.90
16392;DHT22;8305;-33.882;151.134;2023-07-31T12:29:49;14.80;99.90
16392;DHT22;8305;-33.882;151.134;2023-07-31T12:32:23;14.70;99.90
16392;DHT22;8305;-33.882;151.134;2023-07-31T12:35:00;14.60;99.90
16392;DHT22;8305;-33.882;151.134;2023-07-31T12:37:33;14.50;99.90
16392;DHT22;8305;-33.882;151.134;2023-07-31T12:40:05;14.40;99.90
16392;DHT22;8305;-33.882;151.134;2023-07-31T12:42:36;14.20;99.90
16392;DHT22;8305;-33.882;151.134;2023-07-31T12:45:07;14.20;99.90
16392;DHT22;8305;-33.882;151.134;2023-07-31T12:47:38;14.10;99.90
16392;DHT22;8305;-33.882;151.134;2023-07-31T12:50:09;14.00;99.90
16392;DHT22;8305;-33.882;151.134;2023-07-31T12:52:42;13.90;99.90
16392;DHT22;8305;-33.882;151.134;2023-07-31T12:55:12;13.90;99.90
16392;DHT22;8305;-33.882;151.134;2023-07-31T12:57:43;13.80;99.90
16392;DHT22;8305;-33.882;151.134;2023-07-31T13:00:14;13.80;99.90
16392;DHT22;8305;-33.882;151.134;2023-07-31T13:02:45;13.80;99.90
16392;DHT22;8305;-33.882;151.134;2023-07-31T13:05:16;13.80;99.90
16392;DHT22;8305;-33.882;151.134;2023-07-31T13:07:49;13.80;99.90
16392;DHT22;8305;-33.882;151.134;2023-07-31T13:10:21;13.90;99.90
16392;DHT22;8305;-33.882;151.134;2023-07-31T13:12:54;13.80;99.90
16392;DHT22;8305;-33.882;151.134;2023-07-31T13:15:25;13.90;99.90
16392;DHT22;8305;-33.882;151.134;2023-07-31T13:17:56;13.90;99.90
16392;DHT22;8305;-33.882;151.134;2023-07-31T13:20:27;13.90;99.90
16392;DHT22;8305;-33.882;151.134;2023-07-31T13:23:00;13.80;99.90
16392;DHT22;8305;-33.882;151.134;2023-07-31T13:25:30;13.80;99.90
16392;DHT22;8305;-33.882;151.134;2023-07-31T13:28:01;13.80;99.90
16392;DHT22;8305;-33.882;151.134;2023-07-31T13:30:32;13.70;99.90
16392;DHT22;8305;-33.882;151.134;2023-07-31T13:33:03;13.70;99.90
16392;DHT22;8305;-33.882;151.134;2023-07-31T13:35:34;13.50;99.90
16392;DHT22;8305;-33.882;151.134;2023-07-31T13:38:07;13.50;99.90
16392;DHT22;8305;-33.882;151.134;2023-07-31T13:40:37;13.40;99.90
16392;DHT22;8305;-33.882;151.134;2023-07-31T13:43:08;13.30;99.90
16392;DHT22;8305;-33.882;151.134;2023-07-31T13:45:39;13.30;99.90
16392;DHT22;8305;-33.882;151.134;2023-07-31T13:48:10;13.20;99.90
16392;DHT22;8305;-33.882;151.134;2023-07-31T13:50:40;13.10;99.90
16392;DHT22;8305;-33.882;151.134;2023-07-31T13:53:13;13.10;99.90
16392;DHT22;8305;-33.882;151.134;2023-07-31T13:55:44;13.10;99.90
16392;DHT22;8305;-33.882;151.134;2023-07-31T13:58:17;13.00;99.90
16392;DHT22;8305;-33.882;151.134;2023-07-31T14:00:47;13.00;99.90
16392;DHT22;8305;-33.882;151.134;2023-07-31T14:03:18;13.00;99.90
16392;DHT22;8305;-33.882;151.134;2023-07-31T14:05:49;13.00;99.90
16392;DHT22;8305;-33.882;151.134;2023-07-31T14:08:22;13.00;99.90
16392;DHT22;8305;-33.882;151.134;2023-07-31T14:10:53;12.90;99.90
16392;DHT22;8305;-33.882;151.134;2023-07-31T14:13:24;12.90;99.90
16392;DHT22;8305;-33.882;151.134;2023-07-31T14:15:54;12.80;99.90
16392;DHT22;8305;-33.882;151.134;2023-07-31T14:18:25;12.80;99.90
16392;DHT22;8305;-33.882;151.134;2023-07-31T14:20:56;12.80;99.90
16392;DHT22;8305;-33.882;151.134;2023-07-31T14:23:29;12.80;99.90
16392;DHT22;8305;-33.882;151.134;2023-07-31T14:25:59;12.80;99.90
16392;DHT22;8305;-33.882;151.134;2023-07-31T14:28:30;12.70;99.90
16392;DHT22;8305;-33.882;151.134;2023-07-31T14:31:01;12.70;99.90
16392;DHT22;8305;-33.882;151.134;2023-07-31T14:33:31;12.70;99.90
16392;DHT22;8305;-33.882;151.134;2023-07-31T14:36:02;12.70;99.90
16392;DHT22;8305;-33.882;151.134;2023-07-31T14:38:35;12.70;99.90
16392;DHT22;8305;-33.882;151.134;2023-07-31T14:41:05;12.70;99.90
16392;DHT22;8305;-33.882;151.134;2023-07-31T14:43:36;12.70;99.90
16392;DHT22;8305;-33.882;151.134;2023-07-31T14:46:06;12.70;99.90
16392;DHT22;8305;-33.882;151.134;2023-07-31T14:48:37;12.70;99.90
16392;DHT22;8305;-33.882;151.134;2023-07-31T14:51:08;12.70;99.90
16392;DHT22;8305;-33.882;151.134;2023-07-31T14:53:40;12.70;99.90
16392;DHT22;8305;-33.882;151.134;2023-07-31T14:56:11;12.70;99.90
16392;DHT22;8305;-33.882;151.134;2023-07-31T14:58:41;12.60;99.90
16392;DHT22;8305;-33.882;151.134;2023-07-31T15:01:12;12.60;99.90
16392;DHT22;8305;-33.882;151.134;2023-07-31T15:03:42;12.60;99.90
16392;DHT22;8305;-33.882;151.134;2023-07-31T15:06:13;12.60;99.90
16392;DHT22;8305;-33.882;151.134;2023-07-31T15:08:45;12.70;99.90
16392;DHT22;8305;-33.882;151.134;2023-07-31T15:11:16;12.70;99.90
16392;DHT22;8305;-33.882;151.134;2023-07-31T15:13:47;12.70;99.90
16392;DHT22;8305;-33.882;151.134;2023-07-31T15:16:17;12.70;99.90
16392;DHT22;8305;-33.882;151.134;2023-07-31T15:18:48;12.70;99.90
16392;DHT22;8305;-33.882;151.134;2023-07-31T15:21:18;12.70;99.90
16392;DHT22;8305;-33.882;151.134;2023-07-31T15:23:51;12.70;99.90
16392;DHT22;8305;-33.882;151.134;2023-07-31T15:26:21;12.60;99.90
16392;DHT22;8305;-33.882;151.134;2023-07-31T15:29:00;12.60;99.90
16392;DHT22;8305;-33.882;151.134;2023-07-31T15:31:31;12.60;99.90
16392;DHT22;8305;-33.882;151.134;2023-07-31T15:34:02;12.60;99.90